sensor_id;sensor_type;location;lat;lon;timestamp;P1;durP1;ratioP1;P2;durP2;ratioP2
10473;SDS011;5284;50.446;7.904;2024-01-15T00:03:01;43.15;;;13.23;;
10473;SDS011;5284;50.446;7.904;2024-01-15T00:08:04;30.00;;;11.70;;
10473;SDS011;5284;50.446;7.904;2024-01-15T00:13:08;36.50;;;12.30;;
10473;SDS011;5284;50.446;7.904;2024-01-15T00:18:13;37.92;;;12.93;;
10473;SDS011;5284;50.446;7.904;2024-01-15T00:23:16;42.22;;;12.18;;
10473;SDS011;5284;50.446;7.904;2024-01-15T00:28:19;43.60;;;12.43;;
10473;SDS011;5284;50.446;7.904;2024-01-15T00:33:24;42.45;;;13.75;;
10473;SDS011;5284;50.446;7.904;2024-01-15T00:38:27;37.78;;;12.40;;
10473;SDS011;5284;50.446;7.904;2024-01-15T00:43:30;45.30;;;14.65;;
10473;SDS011;5284;50.446;7.904;2024-01-15T00:48:35;45.10;;;14.15;;
10473;SDS011;5284;50.446;7.904;2024-01-15T00:53:38;38.92;;;12.10;;
10473;SDS011;5284;50.446;7.904;2024-01-15T00:58:41;34.70;;;11.27;;
10473;SDS011;5284;50.446;7.904;2024-01-15T01:03:46;36.67;;;11.60;;
10473;SDS011;5284;50.446;7.904;2024-01-15T01:08:49;56.08;;;15.25;;
10473;SDS011;5284;50.446;7.904;2024-01-15T01:13:52;38.38;;;12.10;;
10473;SDS011;5284;50.446;7.904;2024-01-15T01:18:57;69.38;;;21.55;;
10473;SDS011;5284;50.446;7.904;2024-01-15T01:24:00;42.00;;;14.52;;
10473;SDS011;5284;50.446;7.904;2024-01-15T01:29:04;51.40;;;17.65;;
10473;SDS011;5284;50.446;7.904;2024-01-15T01:34:08;48.17;;;16.17;;
10473;SDS011;5284;50.446;7.904;2024-01-15T01:39:11;69.60;;;15.90;;
10473;SDS011;5284;50.446;7.904;2024-01-15T01:44:14;51.53;;;15.50;;
10473;SDS011;5284;50.446;7.904;2024-01-15T01:49:20;49.20;;;15.25;;
10473;SDS011;5284;50.446;7.904;2024-01-15T01:59:29;55.22;;;14.70;;
10473;SDS011;5284;50.446;7.904;2024-01-15T02:04:34;40.92;;;12.52;;
10473;SDS011;5284;50.446;7.904;2024-01-15T02:14:43;47.65;;;13.98;;
10473;SDS011;5284;50.446;7.904;2024-01-15T02:19:49;34.65;;;10.95;;
10473;SDS011;5284;50.446;7.904;2024-01-15T02:24:53;44.38;;;15.00;;
10473;SDS011;5284;50.446;7.904;2024-01-15T02:29:57;43.22;;;13.40;;
10473;SDS011;5284;50.446;7.904;2024-01-15T02:35:01;48.22;;;13.43;;
10473;SDS011;5284;50.446;7.904;2024-01-15T02:40:06;37.05;;;12.57;;
10473;SDS011;5284;50.446;7.904;2024-01-15T02:45:10;52.88;;;14.68;;
10473;SDS011;5284;50.446;7.904;2024-01-15T02:50:13;45.15;;;14.50;;
10473;SDS011;5284;50.446;7.904;2024-01-15T02:55:18;58.00;;;18.55;;
10473;SDS011;5284;50.446;7.904;2024-01-15T03:00:21;50.08;;;14.13;;
10473;SDS011;5284;50.446;7.904;2024-01-15T03:05:24;32.72;;;12.45;;
10473;SDS011;5284;50.446;7.904;2024-01-15T03:10:29;46.80;;;16.85;;
10473;SDS011;5284;50.446;7.904;2024-01-15T03:15:32;53.22;;;14.50;;
10473;SDS011;5284;50.446;7.904;2024-01-15T03:20:36;41.60;;;13.13;;
10473;SDS011;5284;50.446;7.904;2024-01-15T03:25:40;46.75;;;13.63;;
10473;SDS011;5284;50.446;7.904;2024-01-15T03:30:43;54.25;;;15.23;;
10473;SDS011;5284;50.446;7.904;2024-01-15T03:35:48;43.60;;;12.75;;
10473;SDS011;5284;50.446;7.904;2024-01-15T03:40:52;40.53;;;15.02;;
10473;SDS011;5284;50.446;7.904;2024-01-15T03:45:55;50.00;;;11.80;;
10473;SDS011;5284;50.446;7.904;2024-01-15T03:50:58;44.85;;;12.75;;
10473;SDS011;5284;50.446;7.904;2024-01-15T03:56:02;45.45;;;14.40;;
10473;SDS011;5284;50.446;7.904;2024-01-15T04:01:07;55.55;;;16.02;;
10473;SDS011;5284;50.446;7.904;2024-01-15T04:06:10;48.08;;;13.52;;
10473;SDS011;5284;50.446;7.904;2024-01-15T04:11:15;48.88;;;15.48;;
10473;SDS011;5284;50.446;7.904;2024-01-15T04:16:18;42.92;;;13.32;;
10473;SDS011;5284;50.446;7.904;2024-01-15T04:21:22;56.53;;;14.68;;
10473;SDS011;5284;50.446;7.904;2024-01-15T04:26:27;58.45;;;16.42;;
10473;SDS011;5284;50.446;7.904;2024-01-15T04:31:30;51.65;;;13.65;;
10473;SDS011;5284;50.446;7.904;2024-01-15T04:36:38;51.72;;;14.90;;
10473;SDS011;5284;50.446;7.904;2024-01-15T04:41:44;53.33;;;15.25;;
10473;SDS011;5284;50.446;7.904;2024-01-15T04:46:47;55.85;;;16.20;;
10473;SDS011;5284;50.446;7.904;2024-01-15T04:51:52;59.10;;;16.88;;
10473;SDS011;5284;50.446;7.904;2024-01-15T04:56:57;47.45;;;13.75;;
10473;SDS011;5284;50.446;7.904;2024-01-15T05:02:02;52.42;;;14.00;;
10473;SDS011;5284;50.446;7.904;2024-01-15T05:07:06;54.10;;;15.57;;
10473;SDS011;5284;50.446;7.904;2024-01-15T05:12:11;38.78;;;13.27;;
10473;SDS011;5284;50.446;7.904;2024-01-15T05:17:15;44.47;;;13.25;;
10473;SDS011;5284;50.446;7.904;2024-01-15T05:22:17;54.33;;;16.58;;
10473;SDS011;5284;50.446;7.904;2024-01-15T05:27:24;52.63;;;15.93;;
10473;SDS011;5284;50.446;7.904;2024-01-15T05:32:27;55.17;;;14.38;;
10473;SDS011;5284;50.446;7.904;2024-01-15T05:37:30;49.78;;;14.57;;
10473;SDS011;5284;50.446;7.904;2024-01-15T05:42:35;43.30;;;12.93;;
10473;SDS011;5284;50.446;7.904;2024-01-15T05:47:38;56.25;;;15.05;;
10473;SDS011;5284;50.446;7.904;2024-01-15T05:52:41;56.13;;;16.70;;
10473;SDS011;5284;50.446;7.904;2024-01-15T05:57:46;52.42;;;15.63;;
10473;SDS011;5284;50.446;7.904;2024-01-15T06:02:49;42.08;;;14.27;;
10473;SDS011;5284;50.446;7.904;2024-01-15T06:07:52;54.35;;;17.17;;
10473;SDS011;5284;50.446;7.904;2024-01-15T06:12:58;63.40;;;19.05;;
10473;SDS011;5284;50.446;7.904;2024-01-15T06:18:00;48.35;;;13.45;;
10473;SDS011;5284;50.446;7.904;2024-01-15T06:23:04;60.88;;;16.17;;
10473;SDS011;5284;50.446;7.904;2024-01-15T06:28:08;47.90;;;14.95;;
10473;SDS011;5284;50.446;7.904;2024-01-15T06:33:11;54.15;;;13.90;;
10473;SDS011;5284;50.446;7.904;2024-01-15T06:38:15;58.10;;;17.90;;
10473;SDS011;5284;50.446;7.904;2024-01-15T06:43:19;66.85;;;16.75;;
10473;SDS011;5284;50.446;7.904;2024-01-15T06:48:22;59.65;;;16.75;;
10473;SDS011;5284;50.446;7.904;2024-01-15T06:53:25;67.47;;;16.60;;
10473;SDS011;5284;50.446;7.904;2024-01-15T06:58:31;57.40;;;16.45;;
10473;SDS011;5284;50.446;7.904;2024-01-15T07:03:35;54.87;;;17.37;;
10473;SDS011;5284;50.446;7.904;2024-01-15T07:08:38;62.60;;;17.38;;
10473;SDS011;5284;50.446;7.904;2024-01-15T07:13:44;62.58;;;18.20;;
10473;SDS011;5284;50.446;7.904;2024-01-15T07:18:47;69.18;;;16.95;;
10473;SDS011;5284;50.446;7.904;2024-01-15T07:23:51;51.17;;;15.95;;
10473;SDS011;5284;50.446;7.904;2024-01-15T07:28:56;46.75;;;16.35;;
10473;SDS011;5284;50.446;7.904;2024-01-15T07:33:59;54.70;;;16.80;;
10473;SDS011;5284;50.446;7.904;2024-01-15T07:39:04;60.83;;;17.05;;
10473;SDS011;5284;50.446;7.904;2024-01-15T07:44:08;60.42;;;17.67;;
10473;SDS011;5284;50.446;7.904;2024-01-15T07:49:11;57.33;;;17.38;;
10473;SDS011;5284;50.446;7.904;2024-01-15T07:54:17;59.40;;;17.58;;
10473;SDS011;5284;50.446;7.904;2024-01-15T07:59:21;57.10;;;16.10;;
10473;SDS011;5284;50.446;7.904;2024-01-15T08:04:26;44.30;;;16.88;;
10473;SDS011;5284;50.446;7.904;2024-01-15T08:09:29;56.55;;;19.27;;
10473;SDS011;5284;50.446;7.904;2024-01-15T08:14:34;50.97;;;16.45;;
10473;SDS011;5284;50.446;7.904;2024-01-15T08:19:37;45.00;;;12.50;;
10473;SDS011;5284;50.446;7.904;2024-01-15T08:24:43;52.85;;;16.45;;
10473;SDS011;5284;50.446;7.904;2024-01-15T08:29:49;46.63;;;15.82;;
10473;SDS011;5284;50.446;7.904;2024-01-15T08:34:53;50.55;;;16.88;;
10473;SDS011;5284;50.446;7.904;2024-01-15T08:39:56;55.75;;;15.88;;
10473;SDS011;5284;50.446;7.904;2024-01-15T08:45:01;51.33;;;15.95;;
10473;SDS011;5284;50.446;7.904;2024-01-15T08:50:04;49.45;;;18.90;;
10473;SDS011;5284;50.446;7.904;2024-01-15T08:55:13;54.17;;;14.18;;
10473;SDS011;5284;50.446;7.904;2024-01-15T09:00:17;42.30;;;14.98;;
10473;SDS011;5284;50.446;7.904;2024-01-15T09:05:21;44.22;;;14.43;;
10473;SDS011;5284;50.446;7.904;2024-01-15T09:10:24;43.65;;;13.20;;
10473;SDS011;5284;50.446;7.904;2024-01-15T09:15:29;53.05;;;18.42;;
10473;SDS011;5284;50.446;7.904;2024-01-15T09:20:33;40.90;;;15.40;;
10473;SDS011;5284;50.446;7.904;2024-01-15T09:25:38;41.20;;;14.27;;
10473;SDS011;5284;50.446;7.904;2024-01-15T09:30:42;46.25;;;15.18;;
10473;SDS011;5284;50.446;7.904;2024-01-15T09:35:47;39.93;;;13.33;;
10473;SDS011;5284;50.446;7.904;2024-01-15T09:40:50;40.75;;;12.57;;
10473;SDS011;5284;50.446;7.904;2024-01-15T09:45:57;32.72;;;12.27;;
10473;SDS011;5284;50.446;7.904;2024-01-15T09:51:01;34.95;;;12.45;;
10473;SDS011;5284;50.446;7.904;2024-01-15T09:56:04;30.42;;;11.23;;
10473;SDS011;5284;50.446;7.904;2024-01-15T10:01:09;28.88;;;11.38;;
10473;SDS011;5284;50.446;7.904;2024-01-15T10:06:14;32.58;;;12.55;;
10473;SDS011;5284;50.446;7.904;2024-01-15T10:11:23;30.30;;;11.80;;
10473;SDS011;5284;50.446;7.904;2024-01-15T10:16:28;35.53;;;12.55;;
10473;SDS011;5284;50.446;7.904;2024-01-15T10:21:33;27.83;;;10.00;;
10473;SDS011;5284;50.446;7.904;2024-01-15T10:26:39;31.27;;;12.32;;
10473;SDS011;5284;50.446;7.904;2024-01-15T10:31:44;22.27;;;9.85;;
10473;SDS011;5284;50.446;7.904;2024-01-15T10:36:49;27.98;;;10.30;;
10473;SDS011;5284;50.446;7.904;2024-01-15T10:41:56;26.02;;;9.88;;
10473;SDS011;5284;50.446;7.904;2024-01-15T10:47:01;23.85;;;9.70;;
10473;SDS011;5284;50.446;7.904;2024-01-15T10:52:04;21.73;;;9.02;;
10473;SDS011;5284;50.446;7.904;2024-01-15T10:57:08;19.25;;;8.98;;
10473;SDS011;5284;50.446;7.904;2024-01-15T11:02:13;23.00;;;9.27;;
10473;SDS011;5284;50.446;7.904;2024-01-15T11:12:28;31.98;;;10.75;;
10473;SDS011;5284;50.446;7.904;2024-01-15T11:23:04;22.42;;;9.85;;
10473;SDS011;5284;50.446;7.904;2024-01-15T11:28:07;17.08;;;8.10;;
10473;SDS011;5284;50.446;7.904;2024-01-15T11:33:20;23.48;;;10.10;;
10473;SDS011;5284;50.446;7.904;2024-01-15T11:38:37;23.55;;;9.65;;
10473;SDS011;5284;50.446;7.904;2024-01-15T11:43:40;21.15;;;8.60;;
10473;SDS011;5284;50.446;7.904;2024-01-15T11:48:44;20.67;;;7.63;;
10473;SDS011;5284;50.446;7.904;2024-01-15T11:53:48;14.35;;;7.05;;
10473;SDS011;5284;50.446;7.904;2024-01-15T11:58:59;15.48;;;6.50;;
10473;SDS011;5284;50.446;7.904;2024-01-15T12:04:06;12.82;;;5.65;;
10473;SDS011;5284;50.446;7.904;2024-01-15T12:09:11;14.18;;;6.10;;
10473;SDS011;5284;50.446;7.904;2024-01-15T12:14:15;13.48;;;5.47;;
10473;SDS011;5284;50.446;7.904;2024-01-15T12:19:20;23.73;;;5.53;;
10473;SDS011;5284;50.446;7.904;2024-01-15T12:24:24;15.93;;;6.80;;
10473;SDS011;5284;50.446;7.904;2024-01-15T12:29:28;12.38;;;5.97;;
10473;SDS011;5284;50.446;7.904;2024-01-15T12:34:33;9.25;;;4.45;;
10473;SDS011;5284;50.446;7.904;2024-01-15T12:39:38;14.05;;;6.05;;
10473;SDS011;5284;50.446;7.904;2024-01-15T12:44:41;15.00;;;7.43;;
10473;SDS011;5284;50.446;7.904;2024-01-15T12:49:47;13.20;;;6.88;;
10473;SDS011;5284;50.446;7.904;2024-01-15T12:55:09;9.57;;;4.82;;
10473;SDS011;5284;50.446;7.904;2024-01-15T13:00:13;11.75;;;5.22;;
10473;SDS011;5284;50.446;7.904;2024-01-15T13:05:19;9.60;;;5.18;;
10473;SDS011;5284;50.446;7.904;2024-01-15T13:10:24;9.57;;;4.65;;
10473;SDS011;5284;50.446;7.904;2024-01-15T13:15:28;15.70;;;4.50;;
10473;SDS011;5284;50.446;7.904;2024-01-15T13:20:33;11.23;;;4.43;;
10473;SDS011;5284;50.446;7.904;2024-01-15T13:25:36;10.32;;;4.20;;
10473;SDS011;5284;50.446;7.904;2024-01-15T13:30:40;6.28;;;3.72;;
10473;SDS011;5284;50.446;7.904;2024-01-15T13:35:45;7.70;;;3.97;;
10473;SDS011;5284;50.446;7.904;2024-01-15T13:40:51;9.93;;;4.72;;
10473;SDS011;5284;50.446;7.904;2024-01-15T13:45:56;11.35;;;4.40;;
10473;SDS011;5284;50.446;7.904;2024-01-15T13:51:05;12.48;;;3.97;;
10473;SDS011;5284;50.446;7.904;2024-01-15T13:56:09;8.98;;;3.40;;
10473;SDS011;5284;50.446;7.904;2024-01-15T14:01:13;10.60;;;3.97;;
10473;SDS011;5284;50.446;7.904;2024-01-15T14:06:17;14.85;;;3.17;;
10473;SDS011;5284;50.446;7.904;2024-01-15T14:11:20;11.38;;;3.60;;
10473;SDS011;5284;50.446;7.904;2024-01-15T14:16:24;16.50;;;3.15;;
10473;SDS011;5284;50.446;7.904;2024-01-15T14:21:29;15.40;;;3.47;;
10473;SDS011;5284;50.446;7.904;2024-01-15T14:26:34;25.23;;;3.80;;
10473;SDS011;5284;50.446;7.904;2024-01-15T14:31:37;9.75;;;4.72;;
10473;SDS011;5284;50.446;7.904;2024-01-15T14:36:44;13.65;;;5.07;;
10473;SDS011;5284;50.446;7.904;2024-01-15T14:41:48;13.80;;;3.95;;
10473;SDS011;5284;50.446;7.904;2024-01-15T14:46:53;14.60;;;3.85;;
10473;SDS011;5284;50.446;7.904;2024-01-15T14:51:58;13.93;;;4.40;;
10473;SDS011;5284;50.446;7.904;2024-01-15T14:57:02;7.97;;;3.85;;
10473;SDS011;5284;50.446;7.904;2024-01-15T15:02:05;10.50;;;3.58;;
10473;SDS011;5284;50.446;7.904;2024-01-15T15:07:12;4.93;;;3.17;;
10473;SDS011;5284;50.446;7.904;2024-01-15T15:12:16;11.45;;;3.53;;
10473;SDS011;5284;50.446;7.904;2024-01-15T15:17:20;13.93;;;4.85;;
10473;SDS011;5284;50.446;7.904;2024-01-15T15:22:24;6.30;;;3.55;;
10473;SDS011;5284;50.446;7.904;2024-01-15T15:27:28;16.40;;;3.47;;
10473;SDS011;5284;50.446;7.904;2024-01-15T15:32:31;5.47;;;2.50;;
10473;SDS011;5284;50.446;7.904;2024-01-15T15:37:35;16.38;;;3.30;;
10473;SDS011;5284;50.446;7.904;2024-01-15T15:42:38;10.10;;;3.75;;
10473;SDS011;5284;50.446;7.904;2024-01-15T15:47:42;9.23;;;4.22;;
10473;SDS011;5284;50.446;7.904;2024-01-15T15:52:46;11.57;;;3.70;;
10473;SDS011;5284;50.446;7.904;2024-01-15T15:57:49;5.32;;;2.47;;
10473;SDS011;5284;50.446;7.904;2024-01-15T16:02:52;6.53;;;3.03;;
10473;SDS011;5284;50.446;7.904;2024-01-15T16:07:57;10.27;;;3.20;;
10473;SDS011;5284;50.446;7.904;2024-01-15T16:13:01;10.32;;;3.03;;
10473;SDS011;5284;50.446;7.904;2024-01-15T16:18:04;9.70;;;3.65;;
10473;SDS011;5284;50.446;7.904;2024-01-15T16:23:31;15.98;;;8.63;;
10473;SDS011;5284;50.446;7.904;2024-01-15T16:28:54;14.35;;;11.30;;
10473;SDS011;5284;50.446;7.904;2024-01-15T16:39:08;8.43;;;3.33;;
10473;SDS011;5284;50.446;7.904;2024-01-15T16:44:13;15.02;;;5.53;;
10473;SDS011;5284;50.446;7.904;2024-01-15T16:49:16;12.90;;;5.70;;
10473;SDS011;5284;50.446;7.904;2024-01-15T16:54:21;11.43;;;3.80;;
10473;SDS011;5284;50.446;7.904;2024-01-15T16:59:24;6.03;;;3.65;;
10473;SDS011;5284;50.446;7.904;2024-01-15T17:04:28;6.82;;;4.38;;
10473;SDS011;5284;50.446;7.904;2024-01-15T17:09:32;9.15;;;3.88;;
10473;SDS011;5284;50.446;7.904;2024-01-15T17:14:36;6.38;;;3.58;;
10473;SDS011;5284;50.446;7.904;2024-01-15T17:19:39;16.42;;;7.85;;
10473;SDS011;5284;50.446;7.904;2024-01-15T17:24:51;10.05;;;4.40;;
10473;SDS011;5284;50.446;7.904;2024-01-15T17:29:56;6.43;;;4.07;;
10473;SDS011;5284;50.446;7.904;2024-01-15T17:35:00;10.68;;;5.32;;
10473;SDS011;5284;50.446;7.904;2024-01-15T17:40:07;10.45;;;4.47;;
10473;SDS011;5284;50.446;7.904;2024-01-15T17:45:11;13.17;;;4.90;;
10473;SDS011;5284;50.446;7.904;2024-01-15T17:50:14;10.00;;;4.53;;
10473;SDS011;5284;50.446;7.904;2024-01-15T17:55:19;14.98;;;6.15;;
10473;SDS011;5284;50.446;7.904;2024-01-15T18:00:24;7.75;;;4.35;;
10473;SDS011;5284;50.446;7.904;2024-01-15T18:05:27;8.65;;;3.88;;
10473;SDS011;5284;50.446;7.904;2024-01-15T18:10:32;11.73;;;3.90;;
10473;SDS011;5284;50.446;7.904;2024-01-15T18:15:36;10.17;;;4.23;;
10473;SDS011;5284;50.446;7.904;2024-01-15T18:20:39;17.08;;;5.63;;
10473;SDS011;5284;50.446;7.904;2024-01-15T18:25:45;11.30;;;4.20;;
10473;SDS011;5284;50.446;7.904;2024-01-15T18:30:48;12.05;;;4.53;;
10473;SDS011;5284;50.446;7.904;2024-01-15T18:35:51;9.55;;;3.88;;
10473;SDS011;5284;50.446;7.904;2024-01-15T18:40:59;9.03;;;3.13;;
10473;SDS011;5284;50.446;7.904;2024-01-15T18:46:06;17.88;;;3.42;;
10473;SDS011;5284;50.446;7.904;2024-01-15T18:51:18;21.48;;;3.78;;
10473;SDS011;5284;50.446;7.904;2024-01-15T18:56:24;14.65;;;3.05;;
10473;SDS011;5284;50.446;7.904;2024-01-15T19:01:29;8.88;;;2.90;;
10473;SDS011;5284;50.446;7.904;2024-01-15T19:06:34;19.52;;;3.53;;
10473;SDS011;5284;50.446;7.904;2024-01-15T19:11:39;8.63;;;2.83;;
10473;SDS011;5284;50.446;7.904;2024-01-15T19:16:42;7.22;;;2.85;;
10473;SDS011;5284;50.446;7.904;2024-01-15T19:21:45;7.93;;;3.83;;
10473;SDS011;5284;50.446;7.904;2024-01-15T19:26:54;14.10;;;3.37;;
10473;SDS011;5284;50.446;7.904;2024-01-15T19:31:57;18.63;;;4.40;;
10473;SDS011;5284;50.446;7.904;2024-01-15T19:37:02;15.55;;;4.70;;
10473;SDS011;5284;50.446;7.904;2024-01-15T19:42:07;7.40;;;3.20;;
10473;SDS011;5284;50.446;7.904;2024-01-15T19:47:10;17.33;;;3.20;;
10473;SDS011;5284;50.446;7.904;2024-01-15T19:52:15;10.02;;;3.45;;
10473;SDS011;5284;50.446;7.904;2024-01-15T19:57:48;13.98;;;2.92;;
10473;SDS011;5284;50.446;7.904;2024-01-15T20:03:02;13.40;;;2.05;;
10473;SDS011;5284;50.446;7.904;2024-01-15T20:08:11;16.90;;;3.35;;
10473;SDS011;5284;50.446;7.904;2024-01-15T20:18:36;19.45;;;2.95;;
10473;SDS011;5284;50.446;7.904;2024-01-15T20:23:40;18.38;;;3.65;;
10473;SDS011;5284;50.446;7.904;2024-01-15T20:29:00;23.10;;;3.00;;
10473;SDS011;5284;50.446;7.904;2024-01-15T20:34:02;9.75;;;3.58;;
10473;SDS011;5284;50.446;7.904;2024-01-15T20:39:06;8.10;;;2.28;;
10473;SDS011;5284;50.446;7.904;2024-01-15T20:44:11;10.75;;;2.63;;
10473;SDS011;5284;50.446;7.904;2024-01-15T20:49:14;12.88;;;4.00;;
10473;SDS011;5284;50.446;7.904;2024-01-15T20:54:18;20.02;;;3.47;;
10473;SDS011;5284;50.446;7.904;2024-01-15T20:59:23;14.88;;;3.58;;
10473;SDS011;5284;50.446;7.904;2024-01-15T21:04:26;6.35;;;3.08;;
10473;SDS011;5284;50.446;7.904;2024-01-15T21:09:29;21.63;;;2.78;;
10473;SDS011;5284;50.446;7.904;2024-01-15T21:14:34;9.88;;;3.38;;
10473;SDS011;5284;50.446;7.904;2024-01-15T21:19:38;17.40;;;2.93;;
10473;SDS011;5284;50.446;7.904;2024-01-15T21:24:41;26.20;;;2.83;;
10473;SDS011;5284;50.446;7.904;2024-01-15T21:29:45;8.25;;;2.63;;
10473;SDS011;5284;50.446;7.904;2024-01-15T21:34:49;22.60;;;3.03;;
10473;SDS011;5284;50.446;7.904;2024-01-15T21:39:52;8.57;;;2.53;;
10473;SDS011;5284;50.446;7.904;2024-01-15T21:44:56;10.82;;;2.47;;
10473;SDS011;5284;50.446;7.904;2024-01-15T21:49:59;10.85;;;2.88;;
10473;SDS011;5284;50.446;7.904;2024-01-15T21:55:03;11.55;;;3.20;;
10473;SDS011;5284;50.446;7.904;2024-01-15T22:00:09;11.77;;;2.22;;
10473;SDS011;5284;50.446;7.904;2024-01-15T22:10:18;11.77;;;3.53;;
10473;SDS011;5284;50.446;7.904;2024-01-15T22:15:22;13.35;;;3.35;;
10473;SDS011;5284;50.446;7.904;2024-01-15T22:20:28;15.98;;;3.78;;
10473;SDS011;5284;50.446;7.904;2024-01-15T22:25:31;16.67;;;4.07;;
10473;SDS011;5284;50.446;7.904;2024-01-15T22:30:36;23.63;;;3.83;;
10473;SDS011;5284;50.446;7.904;2024-01-15T22:35:39;19.73;;;5.45;;
10473;SDS011;5284;50.446;7.904;2024-01-15T22:40:43;13.35;;;5.95;;
10473;SDS011;5284;50.446;7.904;2024-01-15T22:45:48;33.65;;;8.40;;
10473;SDS011;5284;50.446;7.904;2024-01-15T22:50:52;49.40;;;13.15;;
10473;SDS011;5284;50.446;7.904;2024-01-15T22:55:55;22.58;;;6.20;;
10473;SDS011;5284;50.446;7.904;2024-01-15T23:01:00;10.43;;;4.03;;
10473;SDS011;5284;50.446;7.904;2024-01-15T23:06:04;41.58;;;11.90;;
10473;SDS011;5284;50.446;7.904;2024-01-15T23:11:08;26.75;;;7.50;;
10473;SDS011;5284;50.446;7.904;2024-01-15T23:16:13;24.27;;;8.80;;
10473;SDS011;5284;50.446;7.904;2024-01-15T23:21:15;16.13;;;6.40;;
10473;SDS011;5284;50.446;7.904;2024-01-15T23:26:18;19.08;;;6.85;;
10473;SDS011;5284;50.446;7.904;2024-01-15T23:31:23;19.58;;;5.22;;
10473;SDS011;5284;50.446;7.904;2024-01-15T23:36:26;21.15;;;5.95;;
10473;SDS011;5284;50.446;7.904;2024-01-15T23:41:29;12.57;;;3.40;;
10473;SDS011;5284;50.446;7.904;2024-01-15T23:46:34;34.03;;;4.88;;
10473;SDS011;5284;50.446;7.904;2024-01-15T23:51:37;11.30;;;3.75;;
10473;SDS011;5284;50.446;7.904;2024-01-15T23:56:40;11.73;;;3.22;;
